sensor_id;sensor_type;location;lat;lon;timestamp;temperature;humidity
45729;DHT22;31439;53.512;10.206;2023-06-24T00:00:56;17.70;99.90
45729;DHT22;31439;53.512;10.206;2023-06-24T00:03:22;17.70;99.90
45729;DHT22;31439;53.512;10.206;2023-06-24T00:05:48;17.70;99.90
45729;DHT22;31439;53.512;10.206;2023-06-24T00:08:18;17.70;99.90
45729;DHT22;31439;53.512;10.206;2023-06-24T00:10:48;17.70;99.90
45729;DHT22;31439;53.512;10.206;2023-06-24T00:13:15;17.70;99.90
45729;DHT22;31439;53.512;10.206;2023-06-24T00:15:41;17.50;99.90
45729;DHT22;31439;53.512;10.206;2023-06-24T00:18:11;17.50;99.90
45729;DHT22;31439;53.512;10.206;2023-06-24T00:20:37;17.50;99.90
45729;DHT22;31439;53.512;10.206;2023-06-24T00:23:03;17.40;99.90
45729;DHT22;31439;53.512;10.206;2023-06-24T00:25:29;17.40;99.90
45729;DHT22;31439;53.512;10.206;2023-06-24T00:27:55;17.40;99.90
45729;DHT22;31439;53.512;10.206;2023-06-24T00:30:22;17.40;99.90
45729;DHT22;31439;53.512;10.206;2023-06-24T00:32:48;17.30;99.90
45729;DHT22;31439;53.512;10.206;2023-06-24T00:35:13;17.30;99.90
45729;DHT22;31439;53.512;10.206;2023-06-24T00:37:39;17.30;99.90
45729;DHT22;31439;53.512;10.206;2023-06-24T00:40:07;17.30;99.90
45729;DHT22;31439;53.512;10.206;2023-06-24T00:42:34;17.30;99.90
45729;DHT22;31439;53.512;10.206;2023-06-24T00:44:59;17.20;99.90
45729;DHT22;31439;53.512;10.206;2023-06-24T00:47:29;17.20;99.90
45729;DHT22;31439;53.512;10.206;2023-06-24T00:49:56;17.20;99.90
45729;DHT22;31439;53.512;10.206;2023-06-24T00:52:22;17.10;99.90
45729;DHT22;31439;53.512;10.206;2023-06-24T00:54:49;17.10;99.90
45729;DHT22;31439;53.512;10.206;2023-06-24T00:57:15;17.10;99.90
45729;DHT22;31439;53.512;10.206;2023-06-24T00:59:44;17.10;99.90
45729;DHT22;31439;53.512;10.206;2023-06-24T01:02:11;17.10;99.90
45729;DHT22;31439;53.512;10.206;2023-06-24T01:04:37;17.10;99.90
45729;DHT22;31439;53.512;10.206;2023-06-24T01:07:05;17.10;99.90
45729;DHT22;31439;53.512;10.206;2023-06-24T01:09:31;17.10;99.90
45729;DHT22;31439;53.512;10.206;2023-06-24T01:11:57;17.10;99.90
45729;DHT22;31439;53.512;10.206;2023-06-24T01:14:22;17.10;99.90
45729;DHT22;31439;53.512;10.206;2023-06-24T01:16:56;17.00;99.90
45729;DHT22;31439;53.512;10.206;2023-06-24T01:19:54;17.00;99.90
45729;DHT22;31439;53.512;10.206;2023-06-24T01:22:35;17.00;99.90
45729;DHT22;31439;53.512;10.206;2023-06-24T01:33:32;16.80;99.90
45729;DHT22;31439;53.512;10.206;2023-06-24T01:36:02;16.80;99.90
45729;DHT22;31439;53.512;10.206;2023-06-24T01:38:36;16.90;99.90
45729;DHT22;31439;53.512;10.206;2023-06-24T01:41:06;16.90;99.90
45729;DHT22;31439;53.512;10.206;2023-06-24T01:43:33;16.80;99.90
45729;DHT22;31439;53.512;10.206;2023-06-24T01:46:01;16.90;99.90
45729;DHT22;31439;53.512;10.206;2023-06-24T01:48:28;16.80;99.90
45729;DHT22;31439;53.512;10.206;2023-06-24T01:50:57;16.80;99.90
45729;DHT22;31439;53.512;10.206;2023-06-24T01:53:26;16.80;99.90
45729;DHT22;31439;53.512;10.206;2023-06-24T01:55:53;16.80;99.90
45729;DHT22;31439;53.512;10.206;2023-06-24T01:58:22;16.80;99.90
45729;DHT22;31439;53.512;10.206;2023-06-24T02:00:48;16.80;99.90
45729;DHT22;31439;53.512;10.206;2023-06-24T02:03:15;16.80;99.90
45729;DHT22;31439;53.512;10.206;2023-06-24T02:05:41;16.80;99.90
45729;DHT22;31439;53.512;10.206;2023-06-24T02:08:09;16.70;99.90
45729;DHT22;31439;53.512;10.206;2023-06-24T02:10:37;16.70;99.90
45729;DHT22;31439;53.512;10.206;2023-06-24T02:13:04;16.70;99.90
45729;DHT22;31439;53.512;10.206;2023-06-24T02:15:31;16.80;99.90
45729;DHT22;31439;53.512;10.206;2023-06-24T02:17:59;16.70;99.90
45729;DHT22;31439;53.512;10.206;2023-06-24T02:20:28;16.60;99.90
45729;DHT22;31439;53.512;10.206;2023-06-24T02:22:55;16.70;99.90
45729;DHT22;31439;53.512;10.206;2023-06-24T02:25:22;16.60;99.90
45729;DHT22;31439;53.512;10.206;2023-06-24T02:27:49;16.60;99.90
45729;DHT22;31439;53.512;10.206;2023-06-24T02:30:15;16.60;99.90
45729;DHT22;31439;53.512;10.206;2023-06-24T02:32:41;16.60;99.90
45729;DHT22;31439;53.512;10.206;2023-06-24T02:35:07;16.60;99.90
45729;DHT22;31439;53.512;10.206;2023-06-24T02:37:33;16.60;99.90
45729;DHT22;31439;53.512;10.206;2023-06-24T02:39:59;16.60;99.90
45729;DHT22;31439;53.512;10.206;2023-06-24T02:42:26;16.50;99.90
45729;DHT22;31439;53.512;10.206;2023-06-24T02:44:51;16.50;99.90
45729;DHT22;31439;53.512;10.206;2023-06-24T02:47:19;16.50;99.90
45729;DHT22;31439;53.512;10.206;2023-06-24T02:49:46;16.50;99.90
45729;DHT22;31439;53.512;10.206;2023-06-24T02:52:13;16.50;99.90
45729;DHT22;31439;53.512;10.206;2023-06-24T02:54:39;16.50;99.90
45729;DHT22;31439;53.512;10.206;2023-06-24T02:57:06;16.50;99.90
45729;DHT22;31439;53.512;10.206;2023-06-24T02:59:32;16.40;99.90
45729;DHT22;31439;53.512;10.206;2023-06-24T03:01:58;16.40;99.90
45729;DHT22;31439;53.512;10.206;2023-06-24T03:04:23;16.40;99.90
45729;DHT22;31439;53.512;10.206;2023-06-24T03:06:49;16.40;99.90
45729;DHT22;31439;53.512;10.206;2023-06-24T03:09:16;16.40;99.90
45729;DHT22;31439;53.512;10.206;2023-06-24T03:11:43;16.30;99.90
45729;DHT22;31439;53.512;10.206;2023-06-24T03:14:09;16.30;99.90
45729;DHT22;31439;53.512;10.206;2023-06-24T03:16:35;16.40;99.90
45729;DHT22;31439;53.512;10.206;2023-06-24T03:19:01;16.40;99.90
45729;DHT22;31439;53.512;10.206;2023-06-24T03:21:27;16.30;99.90
45729;DHT22;31439;53.512;10.206;2023-06-24T03:23:54;16.30;99.90
45729;DHT22;31439;53.512;10.206;2023-06-24T03:26:20;16.30;99.90
45729;DHT22;31439;53.512;10.206;2023-06-24T03:28:45;16.30;99.90
45729;DHT22;31439;53.512;10.206;2023-06-24T03:31:11;16.30;99.90
45729;DHT22;31439;53.512;10.206;2023-06-24T03:33:37;16.30;99.90
45729;DHT22;31439;53.512;10.206;2023-06-24T03:36:03;16.20;99.90
45729;DHT22;31439;53.512;10.206;2023-06-24T03:38:28;16.20;99.90
45729;DHT22;31439;53.512;10.206;2023-06-24T03:40:54;16.30;99.90
45729;DHT22;31439;53.512;10.206;2023-06-24T03:43:20;16.30;99.90
45729;DHT22;31439;53.512;10.206;2023-06-24T03:45:45;16.30;99.90
45729;DHT22;31439;53.512;10.206;2023-06-24T03:48:11;16.30;99.90
45729;DHT22;31439;53.512;10.206;2023-06-24T03:50:37;16.30;99.90
45729;DHT22;31439;53.512;10.206;2023-06-24T03:53:03;16.30;99.90
45729;DHT22;31439;53.512;10.206;2023-06-24T03:55:29;16.30;99.90
45729;DHT22;31439;53.512;10.206;2023-06-24T03:57:55;16.30;99.90
45729;DHT22;31439;53.512;10.206;2023-06-24T04:00:20;16.30;99.90
45729;DHT22;31439;53.512;10.206;2023-06-24T04:02:46;16.40;99.90
45729;DHT22;31439;53.512;10.206;2023-06-24T04:05:12;16.40;99.90
45729;DHT22;31439;53.512;10.206;2023-06-24T04:07:38;16.40;99.90
45729;DHT22;31439;53.512;10.206;2023-06-24T04:10:05;16.40;99.90
45729;DHT22;31439;53.512;10.206;2023-06-24T04:12:37;16.40;99.90
45729;DHT22;31439;53.512;10.206;2023-06-24T04:15:03;16.40;99.90
45729;DHT22;31439;53.512;10.206;2023-06-24T04:17:29;16.40;99.90
45729;DHT22;31439;53.512;10.206;2023-06-24T04:19:55;16.50;99.90
45729;DHT22;31439;53.512;10.206;2023-06-24T04:22:21;16.50;99.90
45729;DHT22;31439;53.512;10.206;2023-06-24T04:24:46;16.50;99.90
45729;DHT22;31439;53.512;10.206;2023-06-24T04:27:12;16.60;99.90
45729;DHT22;31439;53.512;10.206;2023-06-24T04:29:37;16.60;99.90
45729;DHT22;31439;53.512;10.206;2023-06-24T04:32:03;16.70;99.90
45729;DHT22;31439;53.512;10.206;2023-06-24T04:34:29;16.70;99.90
45729;DHT22;31439;53.512;10.206;2023-06-24T04:36:55;16.70;99.90
45729;DHT22;31439;53.512;10.206;2023-06-24T04:39:20;16.70;99.90
45729;DHT22;31439;53.512;10.206;2023-06-24T04:41:46;16.70;99.90
45729;DHT22;31439;53.512;10.206;2023-06-24T04:44:12;16.80;99.90
45729;DHT22;31439;53.512;10.206;2023-06-24T04:46:38;16.70;99.90
45729;DHT22;31439;53.512;10.206;2023-06-24T04:49:05;16.80;99.90
45729;DHT22;31439;53.512;10.206;2023-06-24T04:51:31;16.80;99.90
45729;DHT22;31439;53.512;10.206;2023-06-24T04:53:57;16.80;99.90
45729;DHT22;31439;53.512;10.206;2023-06-24T04:56:23;16.90;99.90
45729;DHT22;31439;53.512;10.206;2023-06-24T04:58:49;16.90;99.90
45729;DHT22;31439;53.512;10.206;2023-06-24T05:01:14;17.00;99.90
45729;DHT22;31439;53.512;10.206;2023-06-24T05:03:40;17.10;99.90
45729;DHT22;31439;53.512;10.206;2023-06-24T05:06:05;17.10;99.90
45729;DHT22;31439;53.512;10.206;2023-06-24T05:08:31;17.10;99.90
45729;DHT22;31439;53.512;10.206;2023-06-24T05:10:56;17.10;99.90
45729;DHT22;31439;53.512;10.206;2023-06-24T05:13:23;17.10;99.90
45729;DHT22;31439;53.512;10.206;2023-06-24T05:15:48;17.10;99.90
45729;DHT22;31439;53.512;10.206;2023-06-24T05:18:14;17.30;99.90
45729;DHT22;31439;53.512;10.206;2023-06-24T05:20:40;17.30;99.90
45729;DHT22;31439;53.512;10.206;2023-06-24T05:23:06;17.30;99.90
45729;DHT22;31439;53.512;10.206;2023-06-24T05:25:31;17.40;99.90
45729;DHT22;31439;53.512;10.206;2023-06-24T05:27:57;17.50;99.90
45729;DHT22;31439;53.512;10.206;2023-06-24T05:30:23;17.50;99.90
45729;DHT22;31439;53.512;10.206;2023-06-24T05:32:51;17.50;99.90
45729;DHT22;31439;53.512;10.206;2023-06-24T05:35:17;17.60;99.90
45729;DHT22;31439;53.512;10.206;2023-06-24T05:37:42;17.60;99.90
45729;DHT22;31439;53.512;10.206;2023-06-24T05:40:08;17.60;99.90
45729;DHT22;31439;53.512;10.206;2023-06-24T05:42:34;17.60;99.90
45729;DHT22;31439;53.512;10.206;2023-06-24T05:45:00;17.70;99.90
45729;DHT22;31439;53.512;10.206;2023-06-24T05:47:26;17.70;99.90
45729;DHT22;31439;53.512;10.206;2023-06-24T05:49:51;17.70;99.90
45729;DHT22;31439;53.512;10.206;2023-06-24T05:52:17;17.70;99.90
45729;DHT22;31439;53.512;10.206;2023-06-24T05:54:42;17.80;99.90
45729;DHT22;31439;53.512;10.206;2023-06-24T05:57:08;17.80;99.90
45729;DHT22;31439;53.512;10.206;2023-06-24T05:59:35;17.80;99.90
45729;DHT22;31439;53.512;10.206;2023-06-24T06:02:01;17.80;99.90
45729;DHT22;31439;53.512;10.206;2023-06-24T06:04:29;17.80;99.90
45729;DHT22;31439;53.512;10.206;2023-06-24T06:06:54;17.80;99.90
45729;DHT22;31439;53.512;10.206;2023-06-24T06:09:21;17.80;99.90
45729;DHT22;31439;53.512;10.206;2023-06-24T06:11:46;17.90;99.90
45729;DHT22;31439;53.512;10.206;2023-06-24T06:14:13;18.00;99.90
45729;DHT22;31439;53.512;10.206;2023-06-24T06:16:39;18.00;99.90
45729;DHT22;31439;53.512;10.206;2023-06-24T06:19:05;18.10;99.90
45729;DHT22;31439;53.512;10.206;2023-06-24T06:21:31;18.20;99.90
45729;DHT22;31439;53.512;10.206;2023-06-24T06:23:56;18.20;99.90
45729;DHT22;31439;53.512;10.206;2023-06-24T06:26:22;18.10;99.90
45729;DHT22;31439;53.512;10.206;2023-06-24T06:28:47;18.10;99.90
45729;DHT22;31439;53.512;10.206;2023-06-24T06:31:14;18.20;99.90
45729;DHT22;31439;53.512;10.206;2023-06-24T06:33:39;18.20;99.90
45729;DHT22;31439;53.512;10.206;2023-06-24T06:36:05;18.10;99.90
45729;DHT22;31439;53.512;10.206;2023-06-24T06:38:32;18.10;99.90
45729;DHT22;31439;53.512;10.206;2023-06-24T06:40:58;18.20;99.90
45729;DHT22;31439;53.512;10.206;2023-06-24T06:43:23;18.30;99.90
45729;DHT22;31439;53.512;10.206;2023-06-24T06:45:49;18.30;99.90
45729;DHT22;31439;53.512;10.206;2023-06-24T06:48:15;18.30;99.90
45729;DHT22;31439;53.512;10.206;2023-06-24T06:50:40;18.30;99.90
45729;DHT22;31439;53.512;10.206;2023-06-24T06:53:06;18.30;99.90
45729;DHT22;31439;53.512;10.206;2023-06-24T06:55:31;18.30;99.90
45729;DHT22;31439;53.512;10.206;2023-06-24T06:57:57;18.40;99.90
45729;DHT22;31439;53.512;10.206;2023-06-24T07:00:22;18.50;99.90
45729;DHT22;31439;53.512;10.206;2023-06-24T07:02:48;18.60;99.90
45729;DHT22;31439;53.512;10.206;2023-06-24T07:05:14;18.60;99.90
45729;DHT22;31439;53.512;10.206;2023-06-24T07:07:39;18.60;99.90
45729;DHT22;31439;53.512;10.206;2023-06-24T07:10:05;18.60;99.90
45729;DHT22;31439;53.512;10.206;2023-06-24T07:12:31;18.70;99.90
45729;DHT22;31439;53.512;10.206;2023-06-24T07:14:57;18.70;99.90
45729;DHT22;31439;53.512;10.206;2023-06-24T07:17:22;18.80;99.90
45729;DHT22;31439;53.512;10.206;2023-06-24T07:19:48;18.90;99.90
45729;DHT22;31439;53.512;10.206;2023-06-24T07:22:16;18.90;99.90
45729;DHT22;31439;53.512;10.206;2023-06-24T07:24:42;18.90;99.90
45729;DHT22;31439;53.512;10.206;2023-06-24T07:27:07;19.00;99.90
45729;DHT22;31439;53.512;10.206;2023-06-24T07:29:33;19.00;99.90
45729;DHT22;31439;53.512;10.206;2023-06-24T07:31:59;19.10;99.90
45729;DHT22;31439;53.512;10.206;2023-06-24T07:34:24;19.10;99.90
45729;DHT22;31439;53.512;10.206;2023-06-24T07:36:50;19.20;99.90
45729;DHT22;31439;53.512;10.206;2023-06-24T07:39:16;19.20;99.90
45729;DHT22;31439;53.512;10.206;2023-06-24T07:41:42;19.20;99.90
45729;DHT22;31439;53.512;10.206;2023-06-24T07:44:08;19.20;99.90
45729;DHT22;31439;53.512;10.206;2023-06-24T07:46:34;19.30;99.90
45729;DHT22;31439;53.512;10.206;2023-06-24T07:49:00;19.40;99.90
45729;DHT22;31439;53.512;10.206;2023-06-24T07:51:25;19.30;99.90
45729;DHT22;31439;53.512;10.206;2023-06-24T07:53:51;19.40;99.90
45729;DHT22;31439;53.512;10.206;2023-06-24T07:56:17;19.50;99.90
45729;DHT22;31439;53.512;10.206;2023-06-24T07:58:42;19.50;99.90
45729;DHT22;31439;53.512;10.206;2023-06-24T08:01:08;19.50;99.90
45729;DHT22;31439;53.512;10.206;2023-06-24T08:03:34;19.60;99.90
45729;DHT22;31439;53.512;10.206;2023-06-24T08:06:00;19.40;99.90
45729;DHT22;31439;53.512;10.206;2023-06-24T08:08:25;19.40;99.90
45729;DHT22;31439;53.512;10.206;2023-06-24T08:10:51;19.60;99.90
45729;DHT22;31439;53.512;10.206;2023-06-24T08:13:16;19.60;99.90
45729;DHT22;31439;53.512;10.206;2023-06-24T08:15:42;19.80;99.90
45729;DHT22;31439;53.512;10.206;2023-06-24T08:18:08;19.90;99.90
45729;DHT22;31439;53.512;10.206;2023-06-24T08:20:33;19.90;99.90
45729;DHT22;31439;53.512;10.206;2023-06-24T08:22:59;20.00;99.90
45729;DHT22;31439;53.512;10.206;2023-06-24T08:25:26;20.10;99.90
45729;DHT22;31439;53.512;10.206;2023-06-24T08:28:11;20.40;99.90
45729;DHT22;31439;53.512;10.206;2023-06-24T08:30:55;20.60;99.90
45729;DHT22;31439;53.512;10.206;2023-06-24T08:33:21;20.60;99.90
45729;DHT22;31439;53.512;10.206;2023-06-24T08:35:46;20.70;99.90
45729;DHT22;31439;53.512;10.206;2023-06-24T08:38:12;20.70;99.90
45729;DHT22;31439;53.512;10.206;2023-06-24T08:40:38;20.80;99.90
45729;DHT22;31439;53.512;10.206;2023-06-24T08:43:06;20.70;99.90
45729;DHT22;31439;53.512;10.206;2023-06-24T08:45:31;20.70;99.90
45729;DHT22;31439;53.512;10.206;2023-06-24T08:47:58;20.60;99.90
45729;DHT22;31439;53.512;10.206;2023-06-24T08:50:36;20.90;99.90
45729;DHT22;31439;53.512;10.206;2023-06-24T08:53:08;21.10;99.90
45729;DHT22;31439;53.512;10.206;2023-06-24T08:55:47;21.20;99.90
45729;DHT22;31439;53.512;10.206;2023-06-24T08:58:14;21.10;99.90
45729;DHT22;31439;53.512;10.206;2023-06-24T09:00:54;20.90;99.90
45729;DHT22;31439;53.512;10.206;2023-06-24T09:03:35;20.90;99.90
45729;DHT22;31439;53.512;10.206;2023-06-24T09:06:01;20.90;99.90
45729;DHT22;31439;53.512;10.206;2023-06-24T09:08:28;21.00;99.90
45729;DHT22;31439;53.512;10.206;2023-06-24T09:11:32;21.10;99.90
45729;DHT22;31439;53.512;10.206;2023-06-24T09:13:58;21.20;99.90
45729;DHT22;31439;53.512;10.206;2023-06-24T09:16:25;21.20;99.90
45729;DHT22;31439;53.512;10.206;2023-06-24T09:18:52;21.20;99.90
45729;DHT22;31439;53.512;10.206;2023-06-24T09:21:24;21.20;99.90
45729;DHT22;31439;53.512;10.206;2023-06-24T09:23:54;21.30;99.90
45729;DHT22;31439;53.512;10.206;2023-06-24T09:26:25;21.20;99.90
45729;DHT22;31439;53.512;10.206;2023-06-24T09:28:51;21.30;99.90
45729;DHT22;31439;53.512;10.206;2023-06-24T09:31:18;21.30;99.90
45729;DHT22;31439;53.512;10.206;2023-06-24T09:33:44;21.30;99.90
45729;DHT22;31439;53.512;10.206;2023-06-24T09:36:13;21.50;99.90
45729;DHT22;31439;53.512;10.206;2023-06-24T09:38:41;21.40;99.90
45729;DHT22;31439;53.512;10.206;2023-06-24T09:41:08;21.50;99.90
45729;DHT22;31439;53.512;10.206;2023-06-24T09:43:34;21.60;99.90
45729;DHT22;31439;53.512;10.206;2023-06-24T09:46:05;21.60;99.90
45729;DHT22;31439;53.512;10.206;2023-06-24T09:48:32;21.70;99.90
45729;DHT22;31439;53.512;10.206;2023-06-24T09:51:00;21.70;99.90
45729;DHT22;31439;53.512;10.206;2023-06-24T09:53:30;21.70;99.90
45729;DHT22;31439;53.512;10.206;2023-06-24T09:55:57;21.60;99.90
45729;DHT22;31439;53.512;10.206;2023-06-24T09:58:24;21.80;99.90
45729;DHT22;31439;53.512;10.206;2023-06-24T10:00:50;22.00;99.90
45729;DHT22;31439;53.512;10.206;2023-06-24T10:03:17;22.00;99.90
45729;DHT22;31439;53.512;10.206;2023-06-24T10:05:43;22.00;99.90
45729;DHT22;31439;53.512;10.206;2023-06-24T10:08:10;22.00;99.90
45729;DHT22;31439;53.512;10.206;2023-06-24T10:10:35;22.10;99.90
45729;DHT22;31439;53.512;10.206;2023-06-24T10:13:01;22.20;99.90
45729;DHT22;31439;53.512;10.206;2023-06-24T10:15:27;22.20;99.90
45729;DHT22;31439;53.512;10.206;2023-06-24T10:17:52;22.30;99.90
45729;DHT22;31439;53.512;10.206;2023-06-24T10:20:25;22.40;99.90
45729;DHT22;31439;53.512;10.206;2023-06-24T10:22:52;22.40;99.90
45729;DHT22;31439;53.512;10.206;2023-06-24T10:25:17;22.30;99.90
45729;DHT22;31439;53.512;10.206;2023-06-24T10:27:43;22.30;99.90
45729;DHT22;31439;53.512;10.206;2023-06-24T10:30:17;22.40;99.90
45729;DHT22;31439;53.512;10.206;2023-06-24T10:32:43;22.60;99.90
45729;DHT22;31439;53.512;10.206;2023-06-24T10:35:41;22.60;99.90
45729;DHT22;31439;53.512;10.206;2023-06-24T10:38:10;22.70;99.90
45729;DHT22;31439;53.512;10.206;2023-06-24T10:43:43;22.70;99.90
45729;DHT22;31439;53.512;10.206;2023-06-24T10:49:30;23.10;99.90
45729;DHT22;31439;53.512;10.206;2023-06-24T10:51:56;23.20;99.90
45729;DHT22;31439;53.512;10.206;2023-06-24T10:54:21;23.10;99.90
45729;DHT22;31439;53.512;10.206;2023-06-24T10:56:47;23.10;99.90
45729;DHT22;31439;53.512;10.206;2023-06-24T10:59:13;23.30;99.90
45729;DHT22;31439;53.512;10.206;2023-06-24T11:01:54;23.30;99.90
45729;DHT22;31439;53.512;10.206;2023-06-24T11:04:20;23.30;99.90
45729;DHT22;31439;53.512;10.206;2023-06-24T11:07:01;23.40;99.90
45729;DHT22;31439;53.512;10.206;2023-06-24T11:09:27;23.40;99.90
45729;DHT22;31439;53.512;10.206;2023-06-24T11:11:53;23.40;99.90
45729;DHT22;31439;53.512;10.206;2023-06-24T11:14:21;23.40;99.90
45729;DHT22;31439;53.512;10.206;2023-06-24T11:16:47;23.50;99.90
45729;DHT22;31439;53.512;10.206;2023-06-24T11:19:13;23.70;99.90
45729;DHT22;31439;53.512;10.206;2023-06-24T11:21:38;23.80;99.90
45729;DHT22;31439;53.512;10.206;2023-06-24T11:24:05;23.90;99.90
45729;DHT22;31439;53.512;10.206;2023-06-24T11:26:30;23.70;99.90
45729;DHT22;31439;53.512;10.206;2023-06-24T11:28:56;23.90;99.90
45729;DHT22;31439;53.512;10.206;2023-06-24T11:31:28;23.80;99.90
45729;DHT22;31439;53.512;10.206;2023-06-24T11:33:58;23.90;99.90
45729;DHT22;31439;53.512;10.206;2023-06-24T11:36:23;24.10;99.90
45729;DHT22;31439;53.512;10.206;2023-06-24T11:38:49;24.20;99.90
45729;DHT22;31439;53.512;10.206;2023-06-24T11:41:15;24.10;99.90
45729;DHT22;31439;53.512;10.206;2023-06-24T11:43:45;24.10;99.90
45729;DHT22;31439;53.512;10.206;2023-06-24T11:46:20;24.10;99.90
45729;DHT22;31439;53.512;10.206;2023-06-24T11:48:45;24.10;99.90
45729;DHT22;31439;53.512;10.206;2023-06-24T11:51:14;24.30;99.90
45729;DHT22;31439;53.512;10.206;2023-06-24T11:53:44;24.40;99.90
45729;DHT22;31439;53.512;10.206;2023-06-24T11:56:11;24.20;99.90
45729;DHT22;31439;53.512;10.206;2023-06-24T11:58:37;24.20;99.90
45729;DHT22;31439;53.512;10.206;2023-06-24T12:01:03;24.20;99.90
45729;DHT22;31439;53.512;10.206;2023-06-24T12:03:32;24.20;99.90
45729;DHT22;31439;53.512;10.206;2023-06-24T12:05:59;24.00;99.90
45729;DHT22;31439;53.512;10.206;2023-06-24T12:08:25;24.20;99.90
45729;DHT22;31439;53.512;10.206;2023-06-24T12:10:51;24.50;99.90
45729;DHT22;31439;53.512;10.206;2023-06-24T12:13:17;24.60;99.90
45729;DHT22;31439;53.512;10.206;2023-06-24T12:15:43;24.70;99.90
45729;DHT22;31439;53.512;10.206;2023-06-24T12:18:09;24.90;99.90
45729;DHT22;31439;53.512;10.206;2023-06-24T12:20:35;24.90;99.90
45729;DHT22;31439;53.512;10.206;2023-06-24T12:23:02;24.90;99.90
45729;DHT22;31439;53.512;10.206;2023-06-24T12:25:28;24.80;99.90
45729;DHT22;31439;53.512;10.206;2023-06-24T12:27:54;24.70;99.90
45729;DHT22;31439;53.512;10.206;2023-06-24T12:30:20;24.60;99.90
45729;DHT22;31439;53.512;10.206;2023-06-24T12:32:50;24.50;99.90
45729;DHT22;31439;53.512;10.206;2023-06-24T12:35:16;24.50;99.90
45729;DHT22;31439;53.512;10.206;2023-06-24T12:37:42;24.80;99.90
45729;DHT22;31439;53.512;10.206;2023-06-24T12:40:08;25.00;99.90
45729;DHT22;31439;53.512;10.206;2023-06-24T12:42:33;25.10;99.90
45729;DHT22;31439;53.512;10.206;2023-06-24T12:44:59;25.30;99.90
45729;DHT22;31439;53.512;10.206;2023-06-24T12:47:25;25.40;99.90
45729;DHT22;31439;53.512;10.206;2023-06-24T12:49:52;25.30;99.90
45729;DHT22;31439;53.512;10.206;2023-06-24T12:52:18;25.40;99.90
45729;DHT22;31439;53.512;10.206;2023-06-24T12:54:44;25.50;99.90
45729;DHT22;31439;53.512;10.206;2023-06-24T12:57:10;25.40;99.90
45729;DHT22;31439;53.512;10.206;2023-06-24T12:59:35;25.50;99.90
45729;DHT22;31439;53.512;10.206;2023-06-24T13:02:01;25.60;99.90
45729;DHT22;31439;53.512;10.206;2023-06-24T13:04:27;25.60;99.90
45729;DHT22;31439;53.512;10.206;2023-06-24T13:06:53;25.70;99.90
45729;DHT22;31439;53.512;10.206;2023-06-24T13:09:19;25.60;99.90
45729;DHT22;31439;53.512;10.206;2023-06-24T13:11:45;25.20;99.90
45729;DHT22;31439;53.512;10.206;2023-06-24T13:14:10;25.20;99.90
45729;DHT22;31439;53.512;10.206;2023-06-24T13:16:36;25.30;99.90
45729;DHT22;31439;53.512;10.206;2023-06-24T13:19:02;25.50;99.90
45729;DHT22;31439;53.512;10.206;2023-06-24T13:21:28;25.60;99.90
45729;DHT22;31439;53.512;10.206;2023-06-24T13:23:54;25.60;99.90
45729;DHT22;31439;53.512;10.206;2023-06-24T13:26:19;25.90;99.90
45729;DHT22;31439;53.512;10.206;2023-06-24T13:28:45;26.10;99.90
45729;DHT22;31439;53.512;10.206;2023-06-24T13:31:11;26.40;99.90
45729;DHT22;31439;53.512;10.206;2023-06-24T13:33:37;26.40;99.90
45729;DHT22;31439;53.512;10.206;2023-06-24T13:36:04;26.30;99.90
45729;DHT22;31439;53.512;10.206;2023-06-24T13:38:32;26.20;99.90
45729;DHT22;31439;53.512;10.206;2023-06-24T13:40:57;26.00;99.90
45729;DHT22;31439;53.512;10.206;2023-06-24T13:43:23;25.70;99.90
45729;DHT22;31439;53.512;10.206;2023-06-24T13:45:49;25.60;99.90
45729;DHT22;31439;53.512;10.206;2023-06-24T13:48:14;25.60;99.90
45729;DHT22;31439;53.512;10.206;2023-06-24T13:50:40;25.60;99.90
45729;DHT22;31439;53.512;10.206;2023-06-24T13:53:05;25.40;99.90
45729;DHT22;31439;53.512;10.206;2023-06-24T13:55:31;25.30;99.90
45729;DHT22;31439;53.512;10.206;2023-06-24T13:57:57;25.20;99.90
45729;DHT22;31439;53.512;10.206;2023-06-24T14:00:22;25.40;99.90
45729;DHT22;31439;53.512;10.206;2023-06-24T14:02:48;25.40;99.90
45729;DHT22;31439;53.512;10.206;2023-06-24T14:05:14;25.40;99.90
45729;DHT22;31439;53.512;10.206;2023-06-24T14:07:39;25.20;99.90
45729;DHT22;31439;53.512;10.206;2023-06-24T14:10:05;25.10;99.90
45729;DHT22;31439;53.512;10.206;2023-06-24T14:12:31;25.00;99.90
45729;DHT22;31439;53.512;10.206;2023-06-24T14:14:57;25.00;99.90
45729;DHT22;31439;53.512;10.206;2023-06-24T14:17:23;24.90;99.90
45729;DHT22;31439;53.512;10.206;2023-06-24T14:19:49;24.90;99.90
45729;DHT22;31439;53.512;10.206;2023-06-24T14:22:15;25.00;99.90
45729;DHT22;31439;53.512;10.206;2023-06-24T14:24:43;25.10;99.90
45729;DHT22;31439;53.512;10.206;2023-06-24T14:27:08;25.10;99.90
45729;DHT22;31439;53.512;10.206;2023-06-24T14:29:34;25.10;99.90
45729;DHT22;31439;53.512;10.206;2023-06-24T14:32:00;25.10;99.90
45729;DHT22;31439;53.512;10.206;2023-06-24T14:34:26;25.20;99.90
45729;DHT22;31439;53.512;10.206;2023-06-24T14:36:55;25.20;99.90
45729;DHT22;31439;53.512;10.206;2023-06-24T14:39:21;25.10;99.90
45729;DHT22;31439;53.512;10.206;2023-06-24T14:41:46;25.10;99.90
45729;DHT22;31439;53.512;10.206;2023-06-24T14:44:12;25.20;99.90
45729;DHT22;31439;53.512;10.206;2023-06-24T14:46:37;25.20;99.90
45729;DHT22;31439;53.512;10.206;2023-06-24T14:49:03;25.10;99.90
45729;DHT22;31439;53.512;10.206;2023-06-24T14:51:29;25.00;99.90
45729;DHT22;31439;53.512;10.206;2023-06-24T14:53:54;24.90;99.90
45729;DHT22;31439;53.512;10.206;2023-06-24T14:56:20;24.90;99.90
45729;DHT22;31439;53.512;10.206;2023-06-24T14:58:45;25.00;99.90
45729;DHT22;31439;53.512;10.206;2023-06-24T15:01:11;25.30;99.90
45729;DHT22;31439;53.512;10.206;2023-06-24T15:03:36;25.60;99.90
45729;DHT22;31439;53.512;10.206;2023-06-24T15:06:02;25.70;99.90
45729;DHT22;31439;53.512;10.206;2023-06-24T15:08:28;25.80;99.90
45729;DHT22;31439;53.512;10.206;2023-06-24T15:10:53;25.80;99.90
45729;DHT22;31439;53.512;10.206;2023-06-24T15:13:19;25.90;99.90
45729;DHT22;31439;53.512;10.206;2023-06-24T15:15:45;25.80;99.90
45729;DHT22;31439;53.512;10.206;2023-06-24T15:18:11;25.70;99.90
45729;DHT22;31439;53.512;10.206;2023-06-24T15:20:36;25.50;99.90
45729;DHT22;31439;53.512;10.206;2023-06-24T15:23:02;25.40;99.90
45729;DHT22;31439;53.512;10.206;2023-06-24T15:25:29;25.40;99.90
45729;DHT22;31439;53.512;10.206;2023-06-24T15:27:54;25.30;99.90